createdAt,value
2023-04-16T00:02:20.313Z,1.70
2023-04-16T00:07:23.524Z,1.53
2023-04-16T00:12:28.081Z,1.10
2023-04-16T00:17:31.231Z,1.73
2023-04-16T00:22:34.430Z,1.50
2023-04-16T00:27:39.066Z,1.17
2023-04-16T00:32:42.333Z,1.43
2023-04-16T00:37:45.729Z,1.17
2023-04-16T00:42:50.603Z,1.70
2023-04-16T00:47:53.969Z,2.03
2023-04-16T00:52:58.170Z,1.97
2023-04-16T00:58:02.869Z,2.77
2023-04-16T01:03:06.790Z,2.50
2023-04-16T01:08:17.170Z,2.07
2023-04-16T01:13:21.791Z,1.80
2023-04-16T01:18:25.321Z,1.97
2023-04-16T01:23:29.879Z,2.20
2023-04-16T01:28:33.556Z,2.00
2023-04-16T01:33:36.716Z,1.40
2023-04-16T01:38:41.471Z,1.53
2023-04-16T01:43:44.644Z,2.27
2023-04-16T01:48:48.512Z,2.33
2023-04-16T01:53:53.006Z,3.07
2023-04-16T01:58:56.187Z,2.87
2023-04-16T02:04:01.152Z,3.80
2023-04-16T02:09:06.036Z,4.20
2023-04-16T02:14:09.832Z,6.17
2023-04-16T02:19:13.168Z,6.30
2023-04-16T02:24:19.286Z,5.97
2023-04-16T02:29:22.635Z,5.80
2023-04-16T02:34:34.598Z,6.13
2023-04-16T02:39:39.502Z,8.07
2023-04-16T02:44:42.905Z,6.90
2023-04-16T02:49:46.436Z,6.93
2023-04-16T02:54:51.213Z,6.87
2023-04-16T02:59:54.518Z,7.93
2023-04-16T03:04:57.929Z,5.20
2023-04-16T03:10:02.608Z,5.30
2023-04-16T03:15:06.605Z,5.33
2023-04-16T03:20:11.510Z,4.90
2023-04-16T03:25:16.078Z,5.07
2023-04-16T03:30:19.245Z,5.40
2023-04-16T03:35:22.630Z,4.70
2023-04-16T03:40:27.384Z,4.17
2023-04-16T03:45:31.304Z,3.70
2023-04-16T03:50:34.821Z,4.07
2023-04-16T03:55:42.235Z,3.53
2023-04-16T04:00:46.818Z,3.80
2023-04-16T04:05:51.848Z,3.43
2023-04-16T04:11:02.841Z,3.37
2023-04-16T04:16:07.793Z,3.50
2023-04-16T04:21:11.438Z,4.23
2023-04-16T04:26:16.523Z,4.23
2023-04-16T04:31:19.982Z,4.67
2023-04-16T04:36:23.669Z,4.50
2023-04-16T04:41:29.384Z,4.23
2023-04-16T04:46:32.667Z,4.10
2023-04-16T04:51:36.217Z,3.63
2023-04-16T04:56:41.393Z,3.87
2023-04-16T05:01:44.752Z,3.50
2023-04-16T05:06:47.931Z,3.00
2023-04-16T05:11:52.608Z,2.80
2023-04-16T05:16:56.502Z,3.00
2023-04-16T05:21:59.734Z,3.43
2023-04-16T05:27:04.539Z,3.40
2023-04-16T05:32:08.515Z,3.50
2023-04-16T05:37:12.135Z,3.83
2023-04-16T05:42:17.236Z,4.60
2023-04-16T05:47:21.494Z,5.30
2023-04-16T05:52:25.122Z,4.50
2023-04-16T05:57:30.170Z,4.97
2023-04-16T06:02:33.455Z,5.77
2023-04-16T06:07:36.871Z,5.37
2023-04-16T06:12:41.732Z,4.10
2023-04-16T06:17:45.847Z,5.20
2023-04-16T06:22:49.086Z,4.83
2023-04-16T06:27:53.826Z,4.30
2023-04-16T06:32:57.047Z,13.40
2023-04-16T06:38:00.245Z,4.60
2023-04-16T06:43:04.942Z,4.40
2023-04-16T06:48:08.247Z,6.23
2023-04-16T06:53:11.390Z,4.70
2023-04-16T06:58:16.219Z,4.60
2023-04-16T07:03:20.556Z,4.00
2023-04-16T07:08:24.727Z,4.60
2023-04-16T07:13:29.669Z,4.80
2023-04-16T07:18:33.032Z,4.67
2023-04-16T07:23:36.640Z,3.43
2023-04-16T07:28:42.084Z,3.80
2023-04-16T07:33:45.520Z,3.80
2023-04-16T07:38:49.600Z,4.37
2023-04-16T07:43:55.285Z,3.77
2023-04-16T07:48:58.505Z,5.00
2023-04-16T07:54:02.130Z,5.73
2023-04-16T07:59:21.181Z,4.70
2023-04-16T08:04:26.515Z,3.50
2023-04-16T08:09:30.196Z,5.20
2023-04-16T08:14:34.728Z,9.47
2023-04-16T08:19:37.850Z,5.30
2023-04-16T08:24:42.090Z,6.50
2023-04-16T08:29:46.978Z,5.10
2023-04-16T08:34:51.385Z,5.53
2023-04-16T08:39:55.518Z,12.00
2023-04-16T08:45:10.269Z,8.87
2023-04-16T08:50:15.664Z,7.07
2023-04-16T08:55:23.451Z,6.63
2023-04-16T09:00:29.648Z,5.17
2023-04-16T09:05:34.394Z,10.80
2023-04-16T09:10:37.620Z,5.30
2023-04-16T09:15:42.760Z,6.50
2023-04-16T09:20:46.093Z,8.50
2023-04-16T09:25:49.313Z,5.90
2023-04-16T09:31:09.404Z,8.03
2023-04-16T09:36:12.802Z,5.70
2023-04-16T09:41:17.416Z,18.70
2023-04-16T09:46:22.394Z,15.33
2023-04-16T09:51:26.976Z,6.47
2023-04-16T09:56:30.591Z,4.67
2023-04-16T10:01:35.338Z,6.13
2023-04-16T10:06:38.605Z,23.40
2023-04-16T10:11:42.986Z,14.77
2023-04-16T10:16:47.954Z,21.97
2023-04-16T10:21:51.300Z,33.40
2023-04-16T10:26:54.753Z,38.63
2023-04-16T10:32:00.699Z,7.93
2023-04-16T10:37:04.203Z,17.07
2023-04-16T10:42:12.768Z,35.33
2023-04-16T10:47:18.847Z,8.80
2023-04-16T10:52:24.945Z,3.20
2023-04-16T10:57:30.456Z,1.80
2023-04-16T11:02:35.842Z,1.80
2023-04-16T11:07:49.686Z,2.40
2023-04-16T11:12:55.823Z,1.57
2023-04-16T11:18:00.986Z,3.10
2023-04-16T11:23:05.063Z,1.90
2023-04-16T11:28:08.762Z,4.00
2023-04-16T11:33:14.543Z,2.60
2023-04-16T11:38:19.808Z,10.13
2023-04-16T11:43:27.810Z,4.67
2023-04-16T11:48:51.546Z,5.43
2023-04-16T11:53:56.419Z,6.73
2023-04-16T11:59:10.279Z,6.70
2023-04-16T12:04:17.413Z,5.73
2023-04-16T12:09:27.107Z,5.63
2023-04-16T12:14:33.441Z,6.57
2023-04-16T12:19:52.342Z,6.60
2023-04-16T12:25:00.516Z,6.57
2023-04-16T12:30:08.966Z,7.23
2023-04-16T12:35:16.364Z,10.17
2023-04-16T12:40:25.348Z,10.13
2023-04-16T12:45:28.783Z,13.13
2023-04-16T12:50:33.962Z,9.97
2023-04-16T12:55:38.507Z,13.30
2023-04-16T13:00:42.351Z,11.50
2023-04-16T13:05:48.147Z,11.67
2023-04-16T13:10:51.626Z,10.87
2023-04-16T13:15:55.130Z,9.80
2023-04-16T13:21:00.682Z,15.17
2023-04-16T13:26:04.271Z,12.33
2023-04-16T13:31:07.824Z,11.40
2023-04-16T13:36:12.838Z,10.00
2023-04-16T13:41:16.591Z,12.97
2023-04-16T13:46:21.368Z,12.30
2023-04-16T13:51:27.262Z,9.00
2023-04-16T13:56:30.960Z,11.37
2023-04-16T14:01:34.884Z,13.20
2023-04-16T14:06:40.773Z,8.63
2023-04-16T14:11:45.268Z,9.50
2023-04-16T14:16:49.205Z,9.20
2023-04-16T14:21:54.413Z,8.63
2023-04-16T14:26:58.773Z,12.17
2023-04-16T14:32:02.267Z,11.30
2023-04-16T14:37:07.034Z,11.00
2023-04-16T14:42:10.422Z,8.90
2023-04-16T14:47:14.251Z,10.10
2023-04-16T14:52:19.273Z,10.83
2023-04-16T14:57:22.694Z,12.53
2023-04-16T15:02:26.455Z,14.13
2023-04-16T15:07:31.612Z,13.63
2023-04-16T15:12:34.718Z,17.10
2023-04-16T15:17:38.110Z,13.20
2023-04-16T15:22:42.869Z,14.90
2023-04-16T15:27:46.275Z,19.70
2023-04-16T15:32:49.634Z,17.90
2023-04-16T15:37:55.383Z,20.77
2023-04-16T15:42:58.517Z,16.87
2023-04-16T15:48:02.231Z,18.07
2023-04-16T15:53:07.313Z,16.77
2023-04-16T15:58:12.938Z,13.20
2023-04-16T16:03:16.922Z,13.90
2023-04-16T16:08:21.779Z,18.13
2023-04-16T16:13:25.860Z,15.40
2023-04-16T16:18:29.513Z,17.27
2023-04-16T16:23:33.938Z,18.47
2023-04-16T16:28:38.140Z,16.43
2023-04-16T16:33:41.597Z,17.00
2023-04-16T16:38:49.470Z,19.87
2023-04-16T16:43:55.842Z,20.60
2023-04-16T16:48:59.216Z,16.83
2023-04-16T16:54:03.663Z,14.90
2023-04-16T16:59:06.987Z,18.87
2023-04-16T17:04:11.532Z,19.20
2023-04-16T17:09:34.819Z,13.97
2023-04-16T17:14:37.968Z,16.80
2023-04-16T17:19:41.141Z,16.80
2023-04-16T17:24:48.525Z,15.20
2023-04-16T17:29:52.944Z,16.83
2023-04-16T17:35:00.168Z,20.43
2023-04-16T17:40:08.094Z,15.07
2023-04-16T17:45:17.154Z,23.43
2023-04-16T17:50:20.572Z,24.30
2023-04-16T17:55:27.125Z,19.00
2023-04-16T18:00:30.868Z,20.93
2023-04-16T18:05:34.245Z,27.63
2023-04-16T18:10:39.731Z,23.87
2023-04-16T18:15:45.348Z,26.17
2023-04-16T18:20:49.492Z,21.00
2023-04-16T18:25:54.623Z,12.80
2023-04-16T18:30:59.087Z,15.50
2023-04-16T18:36:06.764Z,13.63
2023-04-16T18:41:18.525Z,19.30
2023-04-16T18:46:27.718Z,17.20
2023-04-16T18:51:33.997Z,15.47
2023-04-16T18:56:38.946Z,12.27
2023-04-16T19:01:47.101Z,12.77
2023-04-16T19:06:51.632Z,14.30
2023-04-16T19:12:03.121Z,11.07
2023-04-16T19:17:12.431Z,12.43
2023-04-16T19:22:16.010Z,17.07
2023-04-16T19:27:21.586Z,14.10
2023-04-16T19:32:26.025Z,14.73
2023-04-16T19:37:29.880Z,16.90
2023-04-16T19:42:39.168Z,17.00
2023-04-16T19:47:43.680Z,14.67
2023-04-16T19:52:51.229Z,19.67
2023-04-16T19:58:05.564Z,18.57
2023-04-16T20:03:11.018Z,15.57
2023-04-16T20:08:14.280Z,15.37
2023-04-16T20:13:18.924Z,13.47
2023-04-16T20:18:22.236Z,12.67
2023-04-16T20:23:25.749Z,14.13
2023-04-16T20:28:30.382Z,14.47
2023-04-16T20:33:33.884Z,15.83
2023-04-16T20:38:37.660Z,15.97
2023-04-16T20:43:43.185Z,18.97
2023-04-16T20:48:46.620Z,18.60
2023-04-16T20:53:52.164Z,14.77
2023-04-16T20:58:57.558Z,16.53
2023-04-16T21:04:00.939Z,19.17
2023-04-16T21:09:07.120Z,14.00
2023-04-16T21:14:14.913Z,20.40
2023-04-16T21:19:18.055Z,19.20
2023-04-16T21:24:21.305Z,16.90
2023-04-16T21:29:25.890Z,15.83
2023-04-16T21:34:29.253Z,18.03
2023-04-16T21:39:32.500Z,20.60
2023-04-16T21:44:37.106Z,18.57
2023-04-16T21:49:42.253Z,16.03
2023-04-16T21:54:45.812Z,17.17
2023-04-16T21:59:50.660Z,16.27
2023-04-16T22:04:53.952Z,18.00
2023-04-16T22:09:57.180Z,17.80
2023-04-16T22:15:03.231Z,21.53
2023-04-16T22:20:09.358Z,19.73
2023-04-16T22:25:12.718Z,18.47
2023-04-16T22:30:17.666Z,18.57
2023-04-16T22:35:20.885Z,16.60
2023-04-16T22:40:24.133Z,18.80
2023-04-16T22:45:28.701Z,12.50
2023-04-16T22:50:32.557Z,17.97
2023-04-16T22:55:35.736Z,21.20
2023-04-16T23:00:40.497Z,19.20
2023-04-16T23:05:43.722Z,22.67
2023-04-16T23:10:46.914Z,18.73
2023-04-16T23:15:51.570Z,16.40
2023-04-16T23:20:55.061Z,21.27
2023-04-16T23:25:58.238Z,19.60
2023-04-16T23:31:04.212Z,20.10
2023-04-16T23:36:10.265Z,17.00
2023-04-16T23:41:13.517Z,24.13
2023-04-16T23:46:18.052Z,17.87
2023-04-16T23:51:21.206Z,21.83
2023-04-16T23:56:24.348Z,24.03
